HE37 weather

Bilbeis Air Base
Bilbeis, Sharqia Governorate, Egypt

Public forecast

Using degrees Celsius for public forecast. Weather courtesy of forecast.io.

METAR (pilot weather report)

Closest report is Cairo International Airport, 19.3 nm (35.7 km) SSW. Retrieved 2019/03/24 04:00 UTC (28 minutes ago):

HECA 240400Z 01006KT 4000 BR SCT025 BKN070 15/13 Q1006

TAF (pilot weather forecast)

Forecast is more than 12 hours old.

Closest forecast is Cairo International Airport, 19.3 nm (35.7 km) SSW. Retrieved 2019/03/23 00:23 UTC (1 day ago):

TAF HECA 232300Z 2400/2506 02006KT CAVOK TEMPO 2400/2406 VRB03KT 4000 BR PROB30 TEMPO 2403/2406 2000 BECMG 2406/2410 31010KT 9999 SCT025 TEMPO 2408/2418 30014G26KT 4000 SA